Time;durP1;ratioP1;P1;durP2;ratioP2;P2;SDS_P1;SDS_P2;PMS_P1;PMS_P2;Temp;Humidity;BMP_temperature;BMP_pressure;BME280_temperature;BME280_humidity;BME280_pressure;Samples;Min_cycle;Max_cycle;Signal;HPM_P1;HPM_P2
2023/07/28 00:01:29;;;;;;;2.63;2.22;;;;;;;;;;5091177;28;20760;-82
2023/07/28 00:03:55;;;;;;;2.70;2.10;;;;;;;;;;5092904;28;20386;-80
2023/07/28 00:06:21;;;;;;;2.55;2.20;;;;;;;;;;5102983;28;20391;-81
2023/07/28 00:08:47;;;;;;;2.30;2.10;;;;;;;;;;5083109;28;20412;-80
2023/07/28 00:11:14;;;;;;;2.25;1.95;;;;;;;;;;5096615;28;20455;-80
2023/07/28 00:13:40;;;;;;;2.35;2.25;;;;;;;;;;5099150;28;20401;-81
2023/07/28 00:16:06;;;;;;;2.40;2.20;;;;;;;;;;5108840;28;20384;-81
2023/07/28 00:18:32;;;;;;;2.63;2.42;;;;;;;;;;5093222;28;20857;-80
2023/07/28 00:20:58;;;;;;;2.83;2.37;;;;;;;;;;5092902;28;20384;-81
2023/07/28 00:23:24;;;;;;;2.55;2.30;;;;;;;;;;5093030;28;20392;-80
2023/07/28 00:25:51;;;;;;;3.22;2.10;;;;;;;;;;5105948;28;20447;-80
2023/07/28 00:28:17;;;;;;;2.20;2.00;;;;;;;;;;5092674;28;20387;-81
2023/07/28 00:30:43;;;;;;;2.67;2.47;;;;;;;;;;5092227;28;20402;-82
2023/07/28 00:33:09;;;;;;;3.20;2.22;;;;;;;;;;5091408;28;20408;-80
2023/07/28 00:35:35;;;;;;;2.13;2.00;;;;;;;;;;5076963;28;20402;-81
2023/07/28 00:38:01;;;;;;;2.50;2.28;;;;;;;;;;5092095;28;20383;-81
2023/07/28 00:40:27;;;;;;;2.80;2.25;;;;;;;;;;5083210;28;20412;-81
2023/07/28 00:42:53;;;;;;;2.53;2.33;;;;;;;;;;5076329;28;20399;-80
2023/07/28 00:45:19;;;;;;;2.95;2.10;;;;;;;;;;5090978;28;20383;-81
2023/07/28 00:47:45;;;;;;;2.33;2.13;;;;;;;;;;5090789;28;20425;-82
2023/07/28 00:50:11;;;;;;;2.58;2.00;;;;;;;;;;5090748;28;20903;-81
2023/07/28 00:52:37;;;;;;;2.00;1.90;;;;;;;;;;5092079;28;20388;-80
2023/07/28 00:55:03;;;;;;;3.45;2.15;;;;;;;;;;5087692;28;20376;-80
2023/07/28 00:57:30;;;;;;;2.35;2.10;;;;;;;;;;5090383;28;20384;-82
2023/07/28 00:59:56;;;;;;;2.50;1.85;;;;;;;;;;5091132;28;20395;-80
2023/07/28 01:02:22;;;;;;;1.95;1.80;;;;;;;;;;5090196;28;20380;-81
2023/07/28 01:04:48;;;;;;;3.55;1.80;;;;;;;;;;5074771;28;20380;-80
2023/07/28 01:07:16;;;;;;;2.78;2.25;;;;;;;;;;5076036;28;20421;-81
2023/07/28 01:09:56;;;;;;;2.10;1.90;;;;;;;;;;5090038;28;20395;-81
2023/07/28 01:12:24;;;;;;;2.80;2.13;;;;;;;;;;5089834;28;20444;-81
2023/07/28 01:14:50;;;;;;;4.50;1.92;;;;;;;;;;5090748;28;20400;-81
2023/07/28 01:17:16;;;;;;;2.57;1.90;;;;;;;;;;5089758;28;20399;-81
2023/07/28 01:19:42;;;;;;;2.00;1.80;;;;;;;;;;5091230;28;20394;-80
2023/07/28 01:22:08;;;;;;;3.17;1.80;;;;;;;;;;5076651;28;20378;-81
2023/07/28 01:24:42;;;;;;;1.98;1.88;;;;;;;;;;5089631;28;20432;-81
2023/07/28 01:27:09;;;;;;;2.17;1.98;;;;;;;;;;5090158;28;20403;-81
2023/07/28 01:29:36;;;;;;;3.00;2.10;;;;;;;;;;5074724;28;20375;-80
2023/07/28 01:32:02;;;;;;;2.20;1.80;;;;;;;;;;5076314;28;20360;-80
2023/07/28 01:34:28;;;;;;;2.28;2.08;;;;;;;;;;5090324;28;20505;-81
2023/07/28 01:36:54;;;;;;;3.35;2.10;;;;;;;;;;5076705;28;20451;-81
2023/07/28 01:39:20;;;;;;;3.60;2.08;;;;;;;;;;5089908;28;20407;-81
2023/07/28 01:41:46;;;;;;;2.20;2.00;;;;;;;;;;5088486;28;20376;-81
2023/07/28 01:44:12;;;;;;;2.10;1.90;;;;;;;;;;5089911;28;20392;-81
2023/07/28 01:46:39;;;;;;;2.10;1.90;;;;;;;;;;5071512;28;20758;-81
2023/07/28 01:49:05;;;;;;;1.95;1.80;;;;;;;;;;5081182;28;20379;-80
2023/07/28 01:51:31;;;;;;;2.17;2.00;;;;;;;;;;5090591;28;20392;-82
2023/07/28 01:53:57;;;;;;;2.50;1.92;;;;;;;;;;5090996;28;20903;-82
2023/07/28 01:56:23;;;;;;;1.80;1.70;;;;;;;;;;5088778;28;20460;-80
2023/07/28 01:58:49;;;;;;;1.92;1.83;;;;;;;;;;5074489;28;20447;-80
2023/07/28 02:01:15;;;;;;;2.45;2.17;;;;;;;;;;5076952;28;20417;-81
2023/07/28 02:03:41;;;;;;;2.15;1.95;;;;;;;;;;5093254;28;20402;-80
2023/07/28 02:06:07;;;;;;;1.80;1.70;;;;;;;;;;5093697;28;20384;-81
2023/07/28 02:08:33;;;;;;;2.20;2.00;;;;;;;;;;5094312;28;20433;-80
2023/07/28 02:10:59;;;;;;;2.17;1.98;;;;;;;;;;5092785;28;20380;-80
2023/07/28 02:13:25;;;;;;;2.00;1.88;;;;;;;;;;5091704;28;20411;-80
2023/07/28 02:15:51;;;;;;;2.50;1.88;;;;;;;;;;5072770;28;20476;-80
2023/07/28 02:18:17;;;;;;;1.70;1.60;;;;;;;;;;5086479;28;20374;-80
2023/07/28 02:20:43;;;;;;;2.30;2.10;;;;;;;;;;5093772;28;20422;-81
2023/07/28 02:23:09;;;;;;;1.80;1.70;;;;;;;;;;5092502;28;20411;-82
2023/07/28 02:25:35;;;;;;;1.80;1.70;;;;;;;;;;5085415;28;20407;-80
2023/07/28 02:28:01;;;;;;;1.92;1.83;;;;;;;;;;5091882;28;20372;-81
2023/07/28 02:30:27;;;;;;;2.55;1.95;;;;;;;;;;5071451;28;20403;-81
2023/07/28 02:32:53;;;;;;;2.58;1.88;;;;;;;;;;5086198;28;20419;-81
2023/07/28 02:35:19;;;;;;;3.00;1.90;;;;;;;;;;5078001;28;20811;-81
2023/07/28 02:37:45;;;;;;;2.17;1.98;;;;;;;;;;5106453;28;20416;-81
2023/07/28 02:40:11;;;;;;;2.28;1.90;;;;;;;;;;5089971;28;20384;-81
2023/07/28 02:42:37;;;;;;;2.40;2.00;;;;;;;;;;5090892;28;20388;-81
2023/07/28 02:45:03;;;;;;;1.80;1.70;;;;;;;;;;5096794;28;20397;-81
2023/07/28 02:47:29;;;;;;;2.40;2.00;;;;;;;;;;5102105;28;20390;-81
2023/07/28 02:49:55;;;;;;;2.25;1.80;;;;;;;;;;5088268;28;20423;-81
2023/07/28 02:52:21;;;;;;;2.67;2.00;;;;;;;;;;5093338;28;20875;-83
2023/07/28 02:54:47;;;;;;;1.60;1.50;;;;;;;;;;5091259;28;20472;-80
2023/07/28 02:57:13;;;;;;;3.00;1.80;;;;;;;;;;5075978;28;20449;-81
2023/07/28 02:59:39;;;;;;;2.10;1.90;;;;;;;;;;5093618;28;20380;-81
2023/07/28 03:02:05;;;;;;;1.83;1.73;;;;;;;;;;5093942;28;20891;-81
2023/07/28 03:04:32;;;;;;;2.30;2.10;;;;;;;;;;5081512;28;20416;-81
2023/07/28 03:06:57;;;;;;;2.47;2.10;;;;;;;;;;5092233;28;20395;-81
2023/07/28 03:09:24;;;;;;;2.65;2.00;;;;;;;;;;5092539;28;20388;-81
2023/07/28 03:11:49;;;;;;;1.98;1.80;;;;;;;;;;5106123;28;20867;-80
2023/07/28 03:14:16;;;;;;;2.08;1.60;;;;;;;;;;5093560;28;20423;-81
2023/07/28 03:16:42;;;;;;;2.00;1.88;;;;;;;;;;5093074;28;20380;-80
2023/07/28 03:19:08;;;;;;;2.40;2.20;;;;;;;;;;5061846;28;20376;-81
2023/07/28 03:21:34;;;;;;;2.47;1.98;;;;;;;;;;5091259;28;20441;-80
2023/07/28 03:24:00;;;;;;;3.63;2.10;;;;;;;;;;5090537;28;20399;-81
2023/07/28 03:26:26;;;;;;;2.40;2.20;;;;;;;;;;5072366;28;20392;-81
2023/07/28 03:28:52;;;;;;;2.42;2.20;;;;;;;;;;5073109;28;20388;-81
2023/07/28 03:31:18;;;;;;;2.70;2.50;;;;;;;;;;5078533;28;20911;-81
2023/07/28 03:33:44;;;;;;;2.67;2.35;;;;;;;;;;5092823;28;20419;-80
2023/07/28 03:36:10;;;;;;;2.67;2.47;;;;;;;;;;5081622;28;20391;-81
2023/07/28 03:38:36;;;;;;;2.90;2.70;;;;;;;;;;5090878;28;20888;-81
2023/07/28 03:41:02;;;;;;;2.70;2.47;;;;;;;;;;5090841;28;20372;-81
2023/07/28 03:43:28;;;;;;;2.90;2.50;;;;;;;;;;5072504;28;20411;-81
2023/07/28 03:45:54;;;;;;;2.83;2.63;;;;;;;;;;5054236;28;20389;-81
2023/07/28 03:48:20;;;;;;;2.33;2.13;;;;;;;;;;5085120;28;20402;-81
2023/07/28 03:50:46;;;;;;;2.35;2.15;;;;;;;;;;5092316;28;20399;-80
2023/07/28 03:53:12;;;;;;;2.75;2.28;;;;;;;;;;5078487;28;20417;-80
2023/07/28 03:55:38;;;;;;;2.50;2.30;;;;;;;;;;5083838;28;20887;-80
2023/07/28 03:58:04;;;;;;;2.70;2.50;;;;;;;;;;5087334;28;20376;-80
2023/07/28 04:00:30;;;;;;;3.33;3.00;;;;;;;;;;5077620;28;20372;-80
2023/07/28 04:02:56;;;;;;;2.97;2.67;;;;;;;;;;5092347;28;20396;-80
2023/07/28 04:05:22;;;;;;;2.80;2.60;;;;;;;;;;5091385;28;20396;-79
2023/07/28 04:07:48;;;;;;;2.95;2.65;;;;;;;;;;5091024;28;20414;-81
2023/07/28 04:10:14;;;;;;;2.53;2.33;;;;;;;;;;5091202;28;20387;-80
2023/07/28 04:12:40;;;;;;;3.50;2.97;;;;;;;;;;5085192;28;20395;-80
2023/07/28 04:15:06;;;;;;;3.40;2.95;;;;;;;;;;5090009;28;20396;-79
2023/07/28 04:17:32;;;;;;;3.30;2.80;;;;;;;;;;5090854;28;20380;-80
2023/07/28 04:19:58;;;;;;;3.60;3.30;;;;;;;;;;5095428;28;20443;-80
2023/07/28 04:22:24;;;;;;;4.43;3.47;;;;;;;;;;5094343;28;20388;-83
2023/07/28 04:24:50;;;;;;;4.40;3.13;;;;;;;;;;5091540;28;20357;-81
2023/07/28 04:27:16;;;;;;;4.57;3.58;;;;;;;;;;5091655;28;20371;-80
2023/07/28 04:29:42;;;;;;;4.10;3.47;;;;;;;;;;5078067;28;20391;-80
2023/07/28 04:32:08;;;;;;;3.70;3.40;;;;;;;;;;5092921;28;20868;-80
2023/07/28 04:34:35;;;;;;;4.05;3.65;;;;;;;;;;5079210;28;20479;-80
2023/07/28 04:37:01;;;;;;;3.20;2.90;;;;;;;;;;5092959;28;20400;-80
2023/07/28 04:39:27;;;;;;;3.70;2.80;;;;;;;;;;5092153;28;20455;-80
2023/07/28 04:41:53;;;;;;;4.45;3.05;;;;;;;;;;5090327;28;20489;-80
2023/07/28 04:44:22;;;;;;;3.30;3.00;;;;;;;;;;5081238;28;20872;-81
2023/07/28 04:46:48;;;;;;;3.58;3.28;;;;;;;;;;5084193;28;20399;-81
2023/07/28 04:49:14;;;;;;;3.40;3.10;;;;;;;;;;5087350;28;20441;-81
2023/07/28 04:51:40;;;;;;;4.05;2.97;;;;;;;;;;5087008;28;20393;-82
2023/07/28 04:54:06;;;;;;;4.05;3.13;;;;;;;;;;5086059;28;20408;-81
2023/07/28 04:56:32;;;;;;;3.90;3.47;;;;;;;;;;5088602;28;20411;-82
2023/07/28 04:58:58;;;;;;;3.53;3.00;;;;;;;;;;5075194;28;20444;-81
2023/07/28 05:01:25;;;;;;;3.45;3.10;;;;;;;;;;5088949;28;20440;-81
2023/07/28 05:03:51;;;;;;;3.30;2.97;;;;;;;;;;5089226;28;20427;-81
2023/07/28 05:06:17;;;;;;;2.93;2.70;;;;;;;;;;5091439;28;20436;-81
2023/07/28 05:08:43;;;;;;;2.80;2.60;;;;;;;;;;5090457;28;20438;-82
2023/07/28 05:11:09;;;;;;;2.97;2.78;;;;;;;;;;5092859;28;20398;-81
2023/07/28 05:13:35;;;;;;;3.22;2.92;;;;;;;;;;5092575;28;20506;-80
2023/07/28 05:16:01;;;;;;;2.80;2.60;;;;;;;;;;5088558;28;20425;-80
2023/07/28 05:18:27;;;;;;;3.30;2.72;;;;;;;;;;5092112;28;20364;-79
2023/07/28 05:20:53;;;;;;;3.50;2.55;;;;;;;;;;5087543;28;20402;-80
2023/07/28 05:23:20;;;;;;;3.07;2.87;;;;;;;;;;5091578;28;20380;-80
2023/07/28 05:25:45;;;;;;;3.08;2.80;;;;;;;;;;5091882;28;20406;-80
2023/07/28 05:28:11;;;;;;;3.00;2.80;;;;;;;;;;5092841;28;20383;-79
2023/07/28 05:30:37;;;;;;;3.22;2.72;;;;;;;;;;5092691;28;20451;-80
2023/07/28 05:33:04;;;;;;;3.60;2.57;;;;;;;;;;5091131;28;20514;-80
2023/07/28 05:35:30;;;;;;;4.80;2.80;;;;;;;;;;5089477;28;20367;-80
2023/07/28 05:37:56;;;;;;;3.20;2.90;;;;;;;;;;5090967;28;20434;-80
2023/07/28 05:40:22;;;;;;;3.20;2.90;;;;;;;;;;5081139;28;20392;-79
2023/07/28 05:42:48;;;;;;;3.28;3.08;;;;;;;;;;5070386;28;20409;-82
2023/07/28 05:45:14;;;;;;;3.95;2.80;;;;;;;;;;5070697;28;20762;-79
2023/07/28 05:47:40;;;;;;;3.88;3.00;;;;;;;;;;5083755;28;20934;-79
2023/07/28 05:50:06;;;;;;;3.97;3.60;;;;;;;;;;5098266;28;20454;-81
2023/07/28 05:52:32;;;;;;;3.83;3.00;;;;;;;;;;5102855;28;20394;-81
2023/07/28 05:54:58;;;;;;;3.83;3.53;;;;;;;;;;5094773;28;20403;-82
2023/07/28 05:57:24;;;;;;;3.65;3.35;;;;;;;;;;5091681;28;20447;-82
2023/07/28 05:59:51;;;;;;;3.60;3.30;;;;;;;;;;5089721;28;20399;-82
2023/07/28 06:02:17;;;;;;;4.05;3.42;;;;;;;;;;5089435;28;20379;-79
2023/07/28 06:04:43;;;;;;;4.05;3.22;;;;;;;;;;5077722;28;20395;-84
2023/07/28 06:07:10;;;;;;;3.13;2.90;;;;;;;;;;5081747;28;20376;-84
2023/07/28 06:09:36;;;;;;;3.72;2.90;;;;;;;;;;5081576;28;20416;-84
2023/07/28 06:12:02;;;;;;;3.47;2.88;;;;;;;;;;5080754;28;20388;-84
2023/07/28 06:14:28;;;;;;;2.90;2.70;;;;;;;;;;5076454;28;20415;-85
2023/07/28 06:16:54;;;;;;;3.35;2.70;;;;;;;;;;5082423;28;20423;-82
2023/07/28 06:19:23;;;;;;;3.10;2.80;;;;;;;;;;5084956;28;20391;-83
2023/07/28 06:21:50;;;;;;;3.35;2.70;;;;;;;;;;5084793;28;20379;-81
2023/07/28 06:24:17;;;;;;;3.15;2.90;;;;;;;;;;5054351;28;20387;-80
2023/07/28 06:26:43;;;;;;;3.27;2.83;;;;;;;;;;5088980;28;20387;-81
2023/07/28 06:29:09;;;;;;;2.70;2.50;;;;;;;;;;5088064;28;20372;-81
2023/07/28 06:31:35;;;;;;;2.95;2.75;;;;;;;;;;5088864;28;20387;-81
2023/07/28 06:34:01;;;;;;;4.90;2.95;;;;;;;;;;5081175;28;20475;-80
2023/07/28 06:36:27;;;;;;;5.40;3.10;;;;;;;;;;5070177;28;20454;-82
2023/07/28 06:38:55;;;;;;;3.75;2.60;;;;;;;;;;5082604;28;20403;-82
2023/07/28 06:41:21;;;;;;;3.03;2.50;;;;;;;;;;5090806;28;20395;-81
2023/07/28 06:43:48;;;;;;;4.30;2.97;;;;;;;;;;5091053;28;20387;-81
2023/07/28 06:46:14;;;;;;;4.13;2.50;;;;;;;;;;5091909;28;20388;-82
2023/07/28 06:48:40;;;;;;;2.93;2.60;;;;;;;;;;5098120;28;20388;-81
2023/07/28 06:51:06;;;;;;;3.33;2.95;;;;;;;;;;5094348;28;20384;-81
2023/07/28 06:53:34;;;;;;;3.00;2.65;;;;;;;;;;5093799;28;20415;-82
2023/07/28 06:56:00;;;;;;;3.20;2.90;;;;;;;;;;5103815;28;20374;-81
2023/07/28 06:58:26;;;;;;;3.15;2.60;;;;;;;;;;5106463;28;20376;-80
2023/07/28 07:00:54;;;;;;;2.78;2.55;;;;;;;;;;5094145;28;20390;-81
2023/07/28 07:03:20;;;;;;;5.18;2.55;;;;;;;;;;5093793;28;20395;-80
2023/07/28 07:05:46;;;;;;;6.03;3.30;;;;;;;;;;5090298;28;20436;-81
2023/07/28 07:08:12;;;;;;;3.17;2.50;;;;;;;;;;5087659;28;20907;-82
2023/07/28 07:10:38;;;;;;;4.45;2.50;;;;;;;;;;5087970;28;20372;-82
2023/07/28 07:13:04;;;;;;;3.70;2.60;;;;;;;;;;5091772;28;20529;-81
2023/07/28 07:15:30;;;;;;;4.28;2.92;;;;;;;;;;5090511;28;20466;-81
2023/07/28 07:17:56;;;;;;;4.57;2.88;;;;;;;;;;5094238;28;20414;-80
2023/07/28 07:20:22;;;;;;;2.95;2.40;;;;;;;;;;5091226;28;20380;-81
2023/07/28 07:22:48;;;;;;;3.58;2.67;;;;;;;;;;5094067;28;20391;-81
2023/07/28 07:25:14;;;;;;;3.00;2.70;;;;;;;;;;5093461;28;20441;-81
2023/07/28 07:27:40;;;;;;;2.90;2.60;;;;;;;;;;5095146;28;20784;-81
2023/07/28 07:30:07;;;;;;;2.60;2.35;;;;;;;;;;5092189;28;20389;-81
2023/07/28 07:32:34;;;;;;;5.63;2.42;;;;;;;;;;5093875;28;20384;-81
2023/07/28 07:35:00;;;;;;;3.25;2.30;;;;;;;;;;5094578;28;20392;-81
2023/07/28 07:37:26;;;;;;;2.60;2.40;;;;;;;;;;5086675;28;20395;-80
2023/07/28 07:39:52;;;;;;;2.60;2.40;;;;;;;;;;5095029;28;20391;-81
2023/07/28 07:42:18;;;;;;;2.30;2.10;;;;;;;;;;5094883;28;20396;-81
2023/07/28 07:44:44;;;;;;;2.25;2.05;;;;;;;;;;5080259;28;20444;-81
2023/07/28 07:47:14;;;;;;;2.60;2.10;;;;;;;;;;5093935;28;20380;-81
2023/07/28 07:49:40;;;;;;;2.40;2.20;;;;;;;;;;5094730;28;20463;-81
2023/07/28 07:52:07;;;;;;;2.97;2.20;;;;;;;;;;5091863;28;20376;-81
2023/07/28 07:54:33;;;;;;;2.23;1.97;;;;;;;;;;5089521;28;20426;-81
2023/07/28 07:56:59;;;;;;;2.85;2.20;;;;;;;;;;5080839;28;20388;-81
2023/07/28 07:59:30;;;;;;;2.65;1.98;;;;;;;;;;5085063;28;20380;-80
2023/07/28 08:01:58;;;;;;;2.72;2.10;;;;;;;;;;5090305;28;20440;-81
2023/07/28 08:04:24;;;;;;;3.63;2.45;;;;;;;;;;5092599;28;20380;-79
2023/07/28 08:06:50;;;;;;;2.55;2.10;;;;;;;;;;5083494;28;20396;-80
2023/07/28 08:09:16;;;;;;;2.63;2.00;;;;;;;;;;5088610;28;20399;-81
2023/07/28 08:11:42;;;;;;;3.60;2.20;;;;;;;;;;5086734;28;20497;-81
2023/07/28 08:14:08;;;;;;;2.63;2.20;;;;;;;;;;5093313;28;20514;-81
2023/07/28 08:16:34;;;;;;;3.20;2.43;;;;;;;;;;5095067;28;20467;-81
2023/07/28 08:19:00;;;;;;;2.20;2.05;;;;;;;;;;5088872;28;20405;-81
2023/07/28 08:21:26;;;;;;;3.50;2.10;;;;;;;;;;5084497;28;20388;-78
2023/07/28 08:23:52;;;;;;;2.22;2.03;;;;;;;;;;5091023;28;20387;-78
2023/07/28 08:26:18;;;;;;;2.30;2.10;;;;;;;;;;5088092;28;20367;-80
2023/07/28 08:28:44;;;;;;;2.38;2.10;;;;;;;;;;5090618;28;20409;-81
2023/07/28 08:31:10;;;;;;;2.38;2.17;;;;;;;;;;5088680;28;20380;-81
2023/07/28 08:33:36;;;;;;;2.30;1.93;;;;;;;;;;5085839;28;20453;-81
2023/07/28 08:36:02;;;;;;;2.27;2.00;;;;;;;;;;5093226;28;20391;-81
2023/07/28 08:38:28;;;;;;;2.28;1.90;;;;;;;;;;5093557;28;20384;-79
2023/07/28 08:40:58;;;;;;;2.88;2.10;;;;;;;;;;5089434;28;20390;-80
2023/07/28 08:43:24;;;;;;;2.77;1.90;;;;;;;;;;5092287;28;20468;-81
2023/07/28 08:45:52;;;;;;;2.60;1.92;;;;;;;;;;5088021;28;20399;-81
2023/07/28 08:48:18;;;;;;;5.70;1.90;;;;;;;;;;5073448;28;20774;-82
2023/07/28 08:50:44;;;;;;;1.95;1.77;;;;;;;;;;5087504;28;20394;-81
2023/07/28 08:53:10;;;;;;;2.10;1.90;;;;;;;;;;5091218;28;20453;-80
2023/07/28 08:55:36;;;;;;;2.05;1.85;;;;;;;;;;5091448;28;20422;-81
2023/07/28 08:58:15;;;;;;;2.43;1.90;;;;;;;;;;5091535;28;20394;-78
2023/07/28 09:00:41;;;;;;;2.40;2.10;;;;;;;;;;5084556;28;20383;-81
2023/07/28 09:03:13;;;;;;;2.72;2.20;;;;;;;;;;5093733;28;20387;-80
2023/07/28 09:05:42;;;;;;;3.20;2.00;;;;;;;;;;5092025;28;20387;-81
2023/07/28 09:08:09;;;;;;;1.88;1.70;;;;;;;;;;5093047;28;20881;-81
2023/07/28 09:10:42;;;;;;;1.95;1.83;;;;;;;;;;5110373;28;20374;-81
2023/07/28 09:13:12;;;;;;;2.05;1.90;;;;;;;;;;5090601;28;20399;-80
2023/07/28 09:15:38;;;;;;;1.88;1.70;;;;;;;;;;5090186;28;20398;-82
2023/07/28 09:18:07;;;;;;;2.05;1.95;;;;;;;;;;5092901;28;20439;-82
2023/07/28 09:20:37;;;;;;;2.45;1.95;;;;;;;;;;5092181;28;20398;-82
2023/07/28 09:23:03;;;;;;;2.45;1.80;;;;;;;;;;5081598;28;20404;-81
2023/07/28 09:25:30;;;;;;;3.15;2.40;;;;;;;;;;5089835;28;20388;-81
2023/07/28 09:27:57;;;;;;;4.38;2.90;;;;;;;;;;5080026;28;20398;-81
2023/07/28 09:30:23;;;;;;;4.50;1.90;;;;;;;;;;5105958;28;20391;-81
2023/07/28 09:32:50;;;;;;;3.05;2.10;;;;;;;;;;5091699;28;20447;-81
2023/07/28 09:35:17;;;;;;;3.42;1.98;;;;;;;;;;5090492;28;20388;-80
2023/07/28 09:37:44;;;;;;;4.72;2.03;;;;;;;;;;5092033;28;20383;-81
2023/07/28 09:40:14;;;;;;;2.65;2.17;;;;;;;;;;5091998;28;20808;-81
2023/07/28 09:42:41;;;;;;;3.72;2.08;;;;;;;;;;5082448;28;20478;-81
2023/07/28 09:45:08;;;;;;;2.50;2.03;;;;;;;;;;5090906;28;20413;-81
2023/07/28 09:47:35;;;;;;;3.40;2.00;;;;;;;;;;5072530;28;20373;-80
2023/07/28 09:50:03;;;;;;;3.00;2.10;;;;;;;;;;5081594;28;20399;-81
2023/07/28 09:52:31;;;;;;;3.40;1.92;;;;;;;;;;5083236;28;20387;-80
2023/07/28 09:55:00;;;;;;;2.20;1.90;;;;;;;;;;5083900;28;20427;-80
2023/07/28 09:57:27;;;;;;;2.88;1.98;;;;;;;;;;5084000;28;20389;-80
2023/07/28 09:59:53;;;;;;;1.98;1.77;;;;;;;;;;5082089;28;20376;-80
2023/07/28 10:02:19;;;;;;;3.42;2.13;;;;;;;;;;5082174;28;20432;-80
2023/07/28 10:04:45;;;;;;;4.17;2.20;;;;;;;;;;5082809;28;20388;-80
2023/07/28 10:07:12;;;;;;;3.10;2.20;;;;;;;;;;5083165;28;20791;-81
2023/07/28 10:09:39;;;;;;;2.78;2.22;;;;;;;;;;5070002;28;20380;-80
2023/07/28 10:12:05;;;;;;;5.20;1.97;;;;;;;;;;5082762;28;20452;-81
2023/07/28 10:14:34;;;;;;;3.33;2.15;;;;;;;;;;5079788;28;20411;-81
2023/07/28 10:17:01;;;;;;;2.58;2.38;;;;;;;;;;5079594;28;20425;-81
2023/07/28 10:19:34;;;;;;;2.45;2.03;;;;;;;;;;5081441;28;20380;-81
2023/07/28 10:22:07;;;;;;;2.33;1.95;;;;;;;;;;5081778;28;20376;-81
2023/07/28 10:24:52;;;;;;;2.58;1.90;;;;;;;;;;5086333;28;20394;-81
2023/07/28 10:27:38;;;;;;;3.90;2.03;;;;;;;;;;5087064;28;20389;-82
2023/07/28 10:30:06;;;;;;;2.20;1.88;;;;;;;;;;5082279;28;20375;-82
2023/07/28 10:32:41;;;;;;;2.30;2.03;;;;;;;;;;5076513;28;20732;-83
2023/07/28 10:35:07;;;;;;;2.73;2.10;;;;;;;;;;5079478;28;20477;-82
2023/07/28 10:37:34;;;;;;;4.43;2.27;;;;;;;;;;5084037;28;20435;-82
2023/07/28 10:40:21;;;;;;;2.05;1.80;;;;;;;;;;5083669;28;20388;-83
2023/07/28 10:42:47;;;;;;;2.67;1.90;;;;;;;;;;5086033;28;20375;-84
2023/07/28 10:45:13;;;;;;;3.05;1.95;;;;;;;;;;5085512;28;20392;-84
2023/07/28 10:47:40;;;;;;;2.15;1.95;;;;;;;;;;5089338;28;20384;-84
2023/07/28 10:50:06;;;;;;;1.98;1.80;;;;;;;;;;5088652;28;20392;-84
2023/07/28 10:52:32;;;;;;;4.30;2.00;;;;;;;;;;5085816;28;20380;-85
2023/07/28 10:54:58;;;;;;;4.10;2.20;;;;;;;;;;5085813;28;20530;-84
2023/07/28 10:57:26;;;;;;;2.13;1.95;;;;;;;;;;5089486;28;20376;-83
2023/07/28 10:59:52;;;;;;;2.80;1.98;;;;;;;;;;5088500;28;20407;-84
2023/07/28 11:02:18;;;;;;;2.20;2.00;;;;;;;;;;5087875;28;20725;-83
2023/07/28 11:04:47;;;;;;;3.17;1.92;;;;;;;;;;5088856;28;20404;-84
2023/07/28 11:07:13;;;;;;;2.28;2.08;;;;;;;;;;5082514;28;20380;-84
2023/07/28 11:09:39;;;;;;;2.72;2.15;;;;;;;;;;5096913;28;20597;-82
2023/07/28 11:12:09;;;;;;;2.50;2.30;;;;;;;;;;5089043;28;20452;-83
2023/07/28 11:14:35;;;;;;;2.33;1.95;;;;;;;;;;5078253;28;20473;-82
2023/07/28 11:17:02;;;;;;;3.30;2.13;;;;;;;;;;5096555;28;20436;-82
2023/07/28 11:19:28;;;;;;;2.35;2.15;;;;;;;;;;5092123;28;20430;-83
2023/07/28 11:21:55;;;;;;;2.05;1.90;;;;;;;;;;5086999;28;20388;-83
2023/07/28 11:24:22;;;;;;;5.37;2.43;;;;;;;;;;5093414;28;20407;-83
2023/07/28 11:26:49;;;;;;;2.10;1.90;;;;;;;;;;5081800;28;20457;-82
2023/07/28 11:29:16;;;;;;;2.17;2.05;;;;;;;;;;5091623;28;20388;-82
2023/07/28 11:31:42;;;;;;;2.23;2.03;;;;;;;;;;5093800;28;20380;-82
2023/07/28 11:34:15;;;;;;;2.50;2.30;;;;;;;;;;5090776;28;20419;-83
2023/07/28 11:36:41;;;;;;;3.30;2.38;;;;;;;;;;5085905;28;20384;-80
2023/07/28 11:39:08;;;;;;;2.47;2.28;;;;;;;;;;5077286;28;20368;-80
2023/07/28 11:41:34;;;;;;;3.20;2.30;;;;;;;;;;5089349;28;20396;-83
2023/07/28 11:44:01;;;;;;;2.47;2.28;;;;;;;;;;5091448;28;20462;-81
2023/07/28 11:46:38;;;;;;;2.20;2.10;;;;;;;;;;5093058;28;20447;-81
2023/07/28 11:49:12;;;;;;;2.40;2.20;;;;;;;;;;5093534;28;20868;-81
2023/07/28 11:51:39;;;;;;;2.20;1.80;;;;;;;;;;5093935;28;20450;-81
2023/07/28 11:54:07;;;;;;;3.03;2.00;;;;;;;;;;5093296;28;20430;-82
2023/07/28 11:56:34;;;;;;;2.92;2.10;;;;;;;;;;5088698;28;20387;-82
2023/07/28 11:59:00;;;;;;;2.05;1.90;;;;;;;;;;5093411;28;20375;-81
2023/07/28 12:01:27;;;;;;;2.20;2.00;;;;;;;;;;5094124;28;20387;-81
2023/07/28 12:03:53;;;;;;;2.55;2.10;;;;;;;;;;5091265;28;20376;-81
2023/07/28 12:06:21;;;;;;;3.10;2.40;;;;;;;;;;5087710;28;20412;-82
2023/07/28 12:08:47;;;;;;;2.17;2.03;;;;;;;;;;5086463;28;20894;-81
2023/07/28 12:11:14;;;;;;;3.80;2.00;;;;;;;;;;5088631;28;20467;-80
2023/07/28 12:13:53;;;;;;;2.42;2.22;;;;;;;;;;5090658;28;20419;-82
2023/07/28 12:16:35;;;;;;;2.40;2.03;;;;;;;;;;5086505;28;20379;-81
2023/07/28 12:19:02;;;;;;;2.00;1.90;;;;;;;;;;5089045;28;20383;-80
2023/07/28 12:21:28;;;;;;;3.03;2.33;;;;;;;;;;5079506;28;20430;-80
2023/07/28 12:23:54;;;;;;;2.20;1.92;;;;;;;;;;5081436;28;20445;-79
2023/07/28 12:26:20;;;;;;;5.00;2.30;;;;;;;;;;5083633;28;20391;-80
2023/07/28 12:28:46;;;;;;;2.00;1.90;;;;;;;;;;5078545;28;20384;-79
2023/07/28 12:31:12;;;;;;;2.17;1.98;;;;;;;;;;5078196;28;20391;-80
2023/07/28 12:33:38;;;;;;;2.28;2.00;;;;;;;;;;5072003;28;20417;-78
2023/07/28 12:36:05;;;;;;;2.50;1.80;;;;;;;;;;5062261;28;20395;-78
2023/07/28 12:38:31;;;;;;;2.00;1.90;;;;;;;;;;5076572;28;20395;-78
2023/07/28 12:40:57;;;;;;;2.10;1.90;;;;;;;;;;5077951;28;20402;-78
2023/07/28 12:43:25;;;;;;;3.80;1.83;;;;;;;;;;5068282;28;20387;-78
2023/07/28 12:45:53;;;;;;;2.20;2.00;;;;;;;;;;5076710;28;20451;-78
2023/07/28 12:48:19;;;;;;;2.13;1.92;;;;;;;;;;5077906;28;20478;-78
2023/07/28 12:50:46;;;;;;;1.90;1.70;;;;;;;;;;5078327;28;20383;-79
2023/07/28 12:53:12;;;;;;;2.65;1.90;;;;;;;;;;5078222;28;20868;-78
2023/07/28 12:55:38;;;;;;;2.33;1.80;;;;;;;;;;5077581;28;20403;-78
2023/07/28 12:58:04;;;;;;;2.60;1.98;;;;;;;;;;5076882;28;20766;-79
2023/07/28 13:00:30;;;;;;;2.55;2.10;;;;;;;;;;5077050;28;20383;-78
2023/07/28 13:02:56;;;;;;;2.95;2.00;;;;;;;;;;5076767;28;20388;-78
2023/07/28 13:05:22;;;;;;;2.15;1.92;;;;;;;;;;5062471;28;20449;-79
2023/07/28 13:07:48;;;;;;;2.30;1.93;;;;;;;;;;5075613;28;20448;-78
2023/07/28 13:10:14;;;;;;;2.27;1.90;;;;;;;;;;5076311;28;20471;-79
2023/07/28 13:12:40;;;;;;;2.00;1.90;;;;;;;;;;5076223;28;20441;-79
2023/07/28 13:15:06;;;;;;;2.80;2.30;;;;;;;;;;5076493;28;20416;-78
2023/07/28 13:17:32;;;;;;;2.17;2.00;;;;;;;;;;5076859;28;20379;-78
2023/07/28 13:19:58;;;;;;;2.10;2.00;;;;;;;;;;5072607;28;20813;-79
2023/07/28 13:22:26;;;;;;;2.10;1.98;;;;;;;;;;5077305;28;20912;-78
2023/07/28 13:24:52;;;;;;;2.20;2.00;;;;;;;;;;5077308;28;20387;-78
2023/07/28 13:27:18;;;;;;;2.00;1.90;;;;;;;;;;5074820;28;20845;-80
2023/07/28 13:29:44;;;;;;;2.28;2.08;;;;;;;;;;5069492;28;20398;-79
2023/07/28 13:32:23;;;;;;;3.00;1.83;;;;;;;;;;5077823;28;20384;-79
2023/07/28 13:34:49;;;;;;;2.28;1.98;;;;;;;;;;5064947;28;20412;-79
2023/07/28 13:37:15;;;;;;;2.60;1.98;;;;;;;;;;5057344;28;20376;-78
2023/07/28 13:39:43;;;;;;;2.58;2.10;;;;;;;;;;5067564;28;20860;-79
2023/07/28 13:42:09;;;;;;;1.90;1.80;;;;;;;;;;5069550;28;20382;-79
2023/07/28 13:44:35;;;;;;;3.72;2.00;;;;;;;;;;5077780;28;20404;-79
2023/07/28 13:47:01;;;;;;;3.67;2.28;;;;;;;;;;5076829;28;20384;-79
2023/07/28 13:49:27;;;;;;;3.13;2.15;;;;;;;;;;5077264;28;20401;-78
2023/07/28 13:51:53;;;;;;;3.00;2.17;;;;;;;;;;5076039;28;20757;-78
2023/07/28 13:54:19;;;;;;;5.77;2.60;;;;;;;;;;5075822;28;20407;-80
2023/07/28 13:56:45;;;;;;;3.53;2.30;;;;;;;;;;5078633;28;20490;-79
2023/07/28 13:59:11;;;;;;;2.00;1.80;;;;;;;;;;5080302;28;20375;-78
2023/07/28 14:01:37;;;;;;;3.42;2.10;;;;;;;;;;5080551;28;20720;-78
2023/07/28 14:04:03;;;;;;;2.80;2.00;;;;;;;;;;5080200;28;20379;-78
2023/07/28 14:06:29;;;;;;;2.20;2.00;;;;;;;;;;5069189;28;20391;-78
2023/07/28 14:08:55;;;;;;;3.05;1.70;;;;;;;;;;5080669;28;20864;-79
2023/07/28 14:11:21;;;;;;;2.10;1.85;;;;;;;;;;5081454;28;20425;-78
2023/07/28 14:13:47;;;;;;;3.50;1.98;;;;;;;;;;5073197;28;20437;-78
2023/07/28 14:16:13;;;;;;;2.08;1.88;;;;;;;;;;5079436;28;20918;-78
2023/07/28 14:18:40;;;;;;;2.03;1.85;;;;;;;;;;5079857;28;20388;-78
2023/07/28 14:21:06;;;;;;;2.00;1.80;;;;;;;;;;5071746;28;20891;-78
2023/07/28 14:23:32;;;;;;;2.10;1.95;;;;;;;;;;5077108;28;20475;-79
2023/07/28 14:25:58;;;;;;;3.45;2.17;;;;;;;;;;5079136;28;20433;-78
2023/07/28 14:28:24;;;;;;;2.22;1.92;;;;;;;;;;5081499;28;20479;-78
2023/07/28 14:30:51;;;;;;;2.10;1.90;;;;;;;;;;5072633;28;20427;-78
2023/07/28 14:33:18;;;;;;;2.47;2.10;;;;;;;;;;5065794;28;20412;-78
2023/07/28 14:35:45;;;;;;;2.00;1.90;;;;;;;;;;5075594;28;20385;-78
2023/07/28 14:38:11;;;;;;;2.08;1.98;;;;;;;;;;5075891;28;20371;-78
2023/07/28 14:40:37;;;;;;;2.15;2.00;;;;;;;;;;5076470;28;20380;-78